sensor_id;sensor_type;location;lat;lon;timestamp;P1;durP1;ratioP1;P2;durP2;ratioP2
71639;SDS011;60912;48.968;10.124;2023-05-18T00:00:34;6.30;;;3.20;;
71639;SDS011;60912;48.968;10.124;2023-05-18T00:02:59;6.20;;;3.10;;
71639;SDS011;60912;48.968;10.124;2023-05-18T00:05:26;7.75;;;3.30;;
71639;SDS011;60912;48.968;10.124;2023-05-18T00:08:01;7.40;;;3.10;;
71639;SDS011;60912;48.968;10.124;2023-05-18T00:10:27;7.33;;;3.20;;
71639;SDS011;60912;48.968;10.124;2023-05-18T00:12:52;7.63;;;3.30;;
71639;SDS011;60912;48.968;10.124;2023-05-18T00:15:18;6.87;;;3.10;;
71639;SDS011;60912;48.968;10.124;2023-05-18T00:17:43;8.17;;;3.43;;
71639;SDS011;60912;48.968;10.124;2023-05-18T00:20:12;6.30;;;3.42;;
71639;SDS011;60912;48.968;10.124;2023-05-18T00:22:37;7.70;;;3.78;;
71639;SDS011;60912;48.968;10.124;2023-05-18T00:25:10;8.27;;;3.72;;
71639;SDS011;60912;48.968;10.124;2023-05-18T00:27:39;6.53;;;3.53;;
71639;SDS011;60912;48.968;10.124;2023-05-18T00:30:07;8.20;;;3.57;;
71639;SDS011;60912;48.968;10.124;2023-05-18T00:32:33;8.80;;;3.30;;
71639;SDS011;60912;48.968;10.124;2023-05-18T00:34:58;8.20;;;3.60;;
71639;SDS011;60912;48.968;10.124;2023-05-18T00:37:24;7.57;;;3.60;;
71639;SDS011;60912;48.968;10.124;2023-05-18T00:39:52;10.88;;;3.17;;
71639;SDS011;60912;48.968;10.124;2023-05-18T00:42:18;7.27;;;3.50;;
71639;SDS011;60912;48.968;10.124;2023-05-18T00:44:43;8.40;;;3.40;;
71639;SDS011;60912;48.968;10.124;2023-05-18T00:47:09;7.07;;;3.45;;
71639;SDS011;60912;48.968;10.124;2023-05-18T00:49:35;6.80;;;3.33;;
71639;SDS011;60912;48.968;10.124;2023-05-18T00:52:01;8.63;;;4.00;;
71639;SDS011;60912;48.968;10.124;2023-05-18T00:54:28;8.35;;;4.40;;
71639;SDS011;60912;48.968;10.124;2023-05-18T00:56:54;7.07;;;4.00;;
71639;SDS011;60912;48.968;10.124;2023-05-18T00:59:20;9.32;;;4.13;;
71639;SDS011;60912;48.968;10.124;2023-05-18T01:01:46;7.57;;;3.77;;
71639;SDS011;60912;48.968;10.124;2023-05-18T01:04:12;9.20;;;4.35;;
71639;SDS011;60912;48.968;10.124;2023-05-18T01:06:38;9.32;;;4.30;;
71639;SDS011;60912;48.968;10.124;2023-05-18T01:09:05;8.53;;;3.90;;
71639;SDS011;60912;48.968;10.124;2023-05-18T01:22:29;9.20;;;4.10;;
71639;SDS011;60912;48.968;10.124;2023-05-18T01:25:09;7.32;;;3.80;;
71639;SDS011;60912;48.968;10.124;2023-05-18T01:27:43;8.05;;;4.03;;
71639;SDS011;60912;48.968;10.124;2023-05-18T01:30:12;7.45;;;4.00;;
71639;SDS011;60912;48.968;10.124;2023-05-18T01:32:39;8.05;;;4.10;;
71639;SDS011;60912;48.968;10.124;2023-05-18T01:35:06;8.33;;;3.37;;
71639;SDS011;60912;48.968;10.124;2023-05-18T01:37:32;8.55;;;4.22;;
71639;SDS011;60912;48.968;10.124;2023-05-18T01:39:58;8.77;;;3.80;;
71639;SDS011;60912;48.968;10.124;2023-05-18T01:42:24;15.80;;;4.20;;
71639;SDS011;60912;48.968;10.124;2023-05-18T01:44:52;7.13;;;3.90;;
71639;SDS011;60912;48.968;10.124;2023-05-18T01:47:22;8.18;;;3.65;;
71639;SDS011;60912;48.968;10.124;2023-05-18T01:52:22;8.15;;;3.80;;
71639;SDS011;60912;48.968;10.124;2023-05-18T01:54:53;6.60;;;3.40;;
71639;SDS011;60912;48.968;10.124;2023-05-18T01:57:22;7.38;;;3.72;;
71639;SDS011;60912;48.968;10.124;2023-05-18T01:59:51;6.70;;;3.75;;
71639;SDS011;60912;48.968;10.124;2023-05-18T02:02:18;8.53;;;3.77;;
71639;SDS011;60912;48.968;10.124;2023-05-18T02:04:43;7.32;;;3.90;;
71639;SDS011;60912;48.968;10.124;2023-05-18T02:07:11;8.73;;;3.67;;
71639;SDS011;60912;48.968;10.124;2023-05-18T02:09:39;7.57;;;3.90;;
71639;SDS011;60912;48.968;10.124;2023-05-18T02:12:05;7.13;;;3.80;;
71639;SDS011;60912;48.968;10.124;2023-05-18T02:14:30;8.43;;;4.00;;
71639;SDS011;60912;48.968;10.124;2023-05-18T02:16:58;7.68;;;3.80;;
71639;SDS011;60912;48.968;10.124;2023-05-18T02:19:25;9.60;;;3.57;;
71639;SDS011;60912;48.968;10.124;2023-05-18T02:21:50;8.30;;;3.70;;
71639;SDS011;60912;48.968;10.124;2023-05-18T02:24:15;7.33;;;3.80;;
71639;SDS011;60912;48.968;10.124;2023-05-18T02:26:44;6.15;;;3.28;;
71639;SDS011;60912;48.968;10.124;2023-05-18T02:29:09;8.83;;;3.27;;
71639;SDS011;60912;48.968;10.124;2023-05-18T02:31:39;8.68;;;3.78;;
71639;SDS011;60912;48.968;10.124;2023-05-18T02:34:08;7.63;;;3.95;;
71639;SDS011;60912;48.968;10.124;2023-05-18T02:36:36;7.53;;;3.90;;
71639;SDS011;60912;48.968;10.124;2023-05-18T02:39:06;8.48;;;3.83;;
71639;SDS011;60912;48.968;10.124;2023-05-18T02:41:32;7.32;;;3.33;;
71639;SDS011;60912;48.968;10.124;2023-05-18T02:43:57;8.10;;;3.40;;
71639;SDS011;60912;48.968;10.124;2023-05-18T02:46:23;7.00;;;3.63;;
71639;SDS011;60912;48.968;10.124;2023-05-18T02:48:48;9.13;;;4.07;;
71639;SDS011;60912;48.968;10.124;2023-05-18T02:51:14;6.60;;;3.72;;
71639;SDS011;60912;48.968;10.124;2023-05-18T02:53:39;8.27;;;3.43;;
71639;SDS011;60912;48.968;10.124;2023-05-18T02:56:04;10.03;;;3.70;;
71639;SDS011;60912;48.968;10.124;2023-05-18T02:58:30;6.47;;;3.43;;
71639;SDS011;60912;48.968;10.124;2023-05-18T03:00:55;6.85;;;3.35;;
71639;SDS011;60912;48.968;10.124;2023-05-18T03:03:21;6.20;;;3.23;;
71639;SDS011;60912;48.968;10.124;2023-05-18T03:05:48;7.15;;;3.40;;
71639;SDS011;60912;48.968;10.124;2023-05-18T03:08:17;8.07;;;3.78;;
71639;SDS011;60912;48.968;10.124;2023-05-18T03:10:46;8.53;;;3.57;;
71639;SDS011;60912;48.968;10.124;2023-05-18T03:13:12;7.95;;;4.00;;
71639;SDS011;60912;48.968;10.124;2023-05-18T03:15:37;7.20;;;3.70;;
71639;SDS011;60912;48.968;10.124;2023-05-18T03:18:03;6.75;;;3.70;;
71639;SDS011;60912;48.968;10.124;2023-05-18T03:20:29;7.70;;;3.53;;
71639;SDS011;60912;48.968;10.124;2023-05-18T03:22:55;7.95;;;3.60;;
71639;SDS011;60912;48.968;10.124;2023-05-18T03:25:21;7.95;;;3.60;;
71639;SDS011;60912;48.968;10.124;2023-05-18T03:27:52;7.65;;;3.50;;
71639;SDS011;60912;48.968;10.124;2023-05-18T03:30:18;12.60;;;3.63;;
71639;SDS011;60912;48.968;10.124;2023-05-18T03:32:45;9.02;;;3.53;;
71639;SDS011;60912;48.968;10.124;2023-05-18T03:35:11;7.32;;;3.42;;
71639;SDS011;60912;48.968;10.124;2023-05-18T03:37:37;9.15;;;4.03;;
71639;SDS011;60912;48.968;10.124;2023-05-18T03:40:12;7.77;;;3.20;;
71639;SDS011;60912;48.968;10.124;2023-05-18T03:42:39;8.73;;;3.63;;
71639;SDS011;60912;48.968;10.124;2023-05-18T03:45:07;7.38;;;3.58;;
71639;SDS011;60912;48.968;10.124;2023-05-18T03:47:33;6.33;;;3.10;;
71639;SDS011;60912;48.968;10.124;2023-05-18T03:49:59;8.85;;;3.70;;
71639;SDS011;60912;48.968;10.124;2023-05-18T03:52:24;6.97;;;3.37;;
71639;SDS011;60912;48.968;10.124;2023-05-18T03:54:50;8.10;;;3.30;;
71639;SDS011;60912;48.968;10.124;2023-05-18T03:57:16;9.23;;;3.70;;
71639;SDS011;60912;48.968;10.124;2023-05-18T03:59:47;7.95;;;3.92;;
71639;SDS011;60912;48.968;10.124;2023-05-18T04:02:12;7.30;;;3.47;;
71639;SDS011;60912;48.968;10.124;2023-05-18T04:04:40;6.70;;;3.53;;
71639;SDS011;60912;48.968;10.124;2023-05-18T04:07:08;9.07;;;3.50;;
71639;SDS011;60912;48.968;10.124;2023-05-18T04:09:34;8.05;;;3.20;;
71639;SDS011;60912;48.968;10.124;2023-05-18T04:12:01;7.47;;;3.30;;
71639;SDS011;60912;48.968;10.124;2023-05-18T04:14:27;7.95;;;3.30;;
71639;SDS011;60912;48.968;10.124;2023-05-18T04:16:53;7.33;;;3.30;;
71639;SDS011;60912;48.968;10.124;2023-05-18T04:19:18;9.85;;;3.30;;
71639;SDS011;60912;48.968;10.124;2023-05-18T04:21:45;6.73;;;3.43;;
71639;SDS011;60912;48.968;10.124;2023-05-18T04:24:15;7.32;;;3.33;;
71639;SDS011;60912;48.968;10.124;2023-05-18T04:26:45;10.40;;;3.42;;
71639;SDS011;60912;48.968;10.124;2023-05-18T04:29:13;10.63;;;3.50;;
71639;SDS011;60912;48.968;10.124;2023-05-18T04:31:44;7.95;;;3.22;;
71639;SDS011;60912;48.968;10.124;2023-05-18T04:34:15;8.00;;;3.30;;
71639;SDS011;60912;48.968;10.124;2023-05-18T04:36:42;7.80;;;3.28;;
71639;SDS011;60912;48.968;10.124;2023-05-18T04:39:11;6.45;;;3.20;;
71639;SDS011;60912;48.968;10.124;2023-05-18T04:41:37;6.50;;;2.87;;
71639;SDS011;60912;48.968;10.124;2023-05-18T04:44:06;8.68;;;3.00;;
71639;SDS011;60912;48.968;10.124;2023-05-18T04:46:31;5.87;;;2.77;;
71639;SDS011;60912;48.968;10.124;2023-05-18T04:48:58;6.10;;;3.00;;
71639;SDS011;60912;48.968;10.124;2023-05-18T04:51:25;5.93;;;2.80;;
71639;SDS011;60912;48.968;10.124;2023-05-18T04:53:53;6.57;;;2.88;;
71639;SDS011;60912;48.968;10.124;2023-05-18T04:56:19;7.95;;;2.97;;
71639;SDS011;60912;48.968;10.124;2023-05-18T04:58:46;5.23;;;2.80;;
71639;SDS011;60912;48.968;10.124;2023-05-18T05:01:13;5.45;;;2.67;;
71639;SDS011;60912;48.968;10.124;2023-05-18T05:03:42;6.10;;;3.05;;
71639;SDS011;60912;48.968;10.124;2023-05-18T05:06:08;5.65;;;2.90;;
71639;SDS011;60912;48.968;10.124;2023-05-18T05:08:34;7.05;;;2.83;;
71639;SDS011;60912;48.968;10.124;2023-05-18T05:11:05;6.20;;;2.90;;
71639;SDS011;60912;48.968;10.124;2023-05-18T05:13:36;6.20;;;2.95;;
71639;SDS011;60912;48.968;10.124;2023-05-18T05:16:11;6.22;;;3.10;;
71639;SDS011;60912;48.968;10.124;2023-05-18T05:18:36;7.82;;;3.20;;
71639;SDS011;60912;48.968;10.124;2023-05-18T05:21:02;7.23;;;2.70;;
71639;SDS011;60912;48.968;10.124;2023-05-18T05:23:27;6.88;;;2.88;;
71639;SDS011;60912;48.968;10.124;2023-05-18T05:25:53;7.87;;;2.77;;
71639;SDS011;60912;48.968;10.124;2023-05-18T05:28:18;6.47;;;2.73;;
71639;SDS011;60912;48.968;10.124;2023-05-18T05:30:44;6.60;;;2.65;;
71639;SDS011;60912;48.968;10.124;2023-05-18T05:33:10;6.43;;;2.50;;
71639;SDS011;60912;48.968;10.124;2023-05-18T05:35:35;5.73;;;2.50;;
71639;SDS011;60912;48.968;10.124;2023-05-18T05:38:03;9.07;;;2.90;;
71639;SDS011;60912;48.968;10.124;2023-05-18T05:40:29;5.70;;;2.30;;
71639;SDS011;60912;48.968;10.124;2023-05-18T05:42:57;7.20;;;2.50;;
71639;SDS011;60912;48.968;10.124;2023-05-18T05:45:22;7.72;;;2.75;;
71639;SDS011;60912;48.968;10.124;2023-05-18T05:47:48;12.90;;;2.47;;
71639;SDS011;60912;48.968;10.124;2023-05-18T05:50:14;7.68;;;2.83;;
71639;SDS011;60912;48.968;10.124;2023-05-18T05:52:39;6.37;;;2.50;;
71639;SDS011;60912;48.968;10.124;2023-05-18T05:55:07;8.50;;;2.40;;
71639;SDS011;60912;48.968;10.124;2023-05-18T05:57:33;8.93;;;2.60;;
71639;SDS011;60912;48.968;10.124;2023-05-18T06:00:03;7.75;;;2.60;;
71639;SDS011;60912;48.968;10.124;2023-05-18T06:02:34;9.10;;;2.45;;
71639;SDS011;60912;48.968;10.124;2023-05-18T06:05:00;9.97;;;2.50;;
71639;SDS011;60912;48.968;10.124;2023-05-18T06:07:25;9.43;;;2.80;;
71639;SDS011;60912;48.968;10.124;2023-05-18T06:09:50;12.47;;;2.73;;
71639;SDS011;60912;48.968;10.124;2023-05-18T06:12:16;8.30;;;2.30;;
71639;SDS011;60912;48.968;10.124;2023-05-18T06:14:44;11.60;;;2.87;;
71639;SDS011;60912;48.968;10.124;2023-05-18T06:17:09;10.43;;;2.70;;
71639;SDS011;60912;48.968;10.124;2023-05-18T06:19:35;12.00;;;2.80;;
71639;SDS011;60912;48.968;10.124;2023-05-18T06:22:00;9.17;;;2.50;;
71639;SDS011;60912;48.968;10.124;2023-05-18T06:24:25;8.57;;;2.70;;
71639;SDS011;60912;48.968;10.124;2023-05-18T06:27:01;10.23;;;2.40;;
71639;SDS011;60912;48.968;10.124;2023-05-18T06:29:26;9.98;;;2.88;;
71639;SDS011;60912;48.968;10.124;2023-05-18T06:31:52;10.33;;;2.20;;
71639;SDS011;60912;48.968;10.124;2023-05-18T06:34:17;8.50;;;2.23;;
71639;SDS011;60912;48.968;10.124;2023-05-18T06:36:42;8.80;;;2.47;;
71639;SDS011;60912;48.968;10.124;2023-05-18T06:39:08;10.53;;;2.23;;
71639;SDS011;60912;48.968;10.124;2023-05-18T06:41:33;10.57;;;2.70;;
71639;SDS011;60912;48.968;10.124;2023-05-18T06:43:59;7.57;;;2.00;;
71639;SDS011;60912;48.968;10.124;2023-05-18T06:46:26;7.78;;;2.30;;
71639;SDS011;60912;48.968;10.124;2023-05-18T06:48:55;9.47;;;2.47;;
71639;SDS011;60912;48.968;10.124;2023-05-18T06:51:20;9.93;;;2.30;;
71639;SDS011;60912;48.968;10.124;2023-05-18T06:53:46;10.30;;;2.43;;
71639;SDS011;60912;48.968;10.124;2023-05-18T06:56:11;8.43;;;2.33;;
71639;SDS011;60912;48.968;10.124;2023-05-18T06:58:40;13.50;;;2.57;;
71639;SDS011;60912;48.968;10.124;2023-05-18T07:01:08;10.73;;;2.50;;
71639;SDS011;60912;48.968;10.124;2023-05-18T07:03:34;10.82;;;2.58;;
71639;SDS011;60912;48.968;10.124;2023-05-18T07:06:03;7.55;;;2.40;;
71639;SDS011;60912;48.968;10.124;2023-05-18T07:08:37;9.57;;;2.27;;
71639;SDS011;60912;48.968;10.124;2023-05-18T07:11:03;9.10;;;2.30;;
71639;SDS011;60912;48.968;10.124;2023-05-18T07:13:29;9.20;;;2.53;;
71639;SDS011;60912;48.968;10.124;2023-05-18T07:15:54;9.63;;;2.40;;
71639;SDS011;60912;48.968;10.124;2023-05-18T07:18:20;14.43;;;2.70;;
71639;SDS011;60912;48.968;10.124;2023-05-18T07:20:45;9.05;;;2.45;;
71639;SDS011;60912;48.968;10.124;2023-05-18T07:23:11;10.57;;;2.50;;
71639;SDS011;60912;48.968;10.124;2023-05-18T07:25:37;9.20;;;2.75;;
71639;SDS011;60912;48.968;10.124;2023-05-18T07:28:02;8.90;;;2.70;;
71639;SDS011;60912;48.968;10.124;2023-05-18T07:30:28;8.67;;;1.97;;
71639;SDS011;60912;48.968;10.124;2023-05-18T07:32:53;11.67;;;2.43;;
71639;SDS011;60912;48.968;10.124;2023-05-18T07:35:20;7.72;;;2.47;;
71639;SDS011;60912;48.968;10.124;2023-05-18T07:37:46;9.80;;;2.38;;
71639;SDS011;60912;48.968;10.124;2023-05-18T07:42:50;12.23;;;2.53;;
71639;SDS011;60912;48.968;10.124;2023-05-18T07:45:15;8.98;;;2.35;;
71639;SDS011;60912;48.968;10.124;2023-05-18T07:47:41;9.57;;;2.23;;
71639;SDS011;60912;48.968;10.124;2023-05-18T07:50:06;10.57;;;2.60;;
71639;SDS011;60912;48.968;10.124;2023-05-18T07:52:32;11.68;;;2.63;;
71639;SDS011;60912;48.968;10.124;2023-05-18T07:54:59;10.30;;;2.97;;
71639;SDS011;60912;48.968;10.124;2023-05-18T07:57:25;7.63;;;2.00;;
71639;SDS011;60912;48.968;10.124;2023-05-18T07:59:51;14.07;;;2.45;;
71639;SDS011;60912;48.968;10.124;2023-05-18T08:02:16;6.23;;;2.03;;
71639;SDS011;60912;48.968;10.124;2023-05-18T08:04:43;7.85;;;2.60;;
71639;SDS011;60912;48.968;10.124;2023-05-18T08:07:12;9.20;;;2.15;;
71639;SDS011;60912;48.968;10.124;2023-05-18T08:09:37;8.17;;;2.10;;
71639;SDS011;60912;48.968;10.124;2023-05-18T08:12:03;11.23;;;2.72;;
71639;SDS011;60912;48.968;10.124;2023-05-18T08:14:30;8.95;;;2.35;;
71639;SDS011;60912;48.968;10.124;2023-05-18T08:16:55;10.70;;;2.17;;
71639;SDS011;60912;48.968;10.124;2023-05-18T08:19:21;9.27;;;2.57;;
71639;SDS011;60912;48.968;10.124;2023-05-18T08:21:46;8.35;;;2.20;;
71639;SDS011;60912;48.968;10.124;2023-05-18T08:24:11;7.07;;;2.20;;
71639;SDS011;60912;48.968;10.124;2023-05-18T08:26:37;10.33;;;2.00;;
71639;SDS011;60912;48.968;10.124;2023-05-18T08:29:05;8.75;;;2.40;;
71639;SDS011;60912;48.968;10.124;2023-05-18T08:31:37;10.07;;;2.78;;
71639;SDS011;60912;48.968;10.124;2023-05-18T08:34:04;11.93;;;2.50;;
71639;SDS011;60912;48.968;10.124;2023-05-18T08:36:32;9.50;;;2.53;;
71639;SDS011;60912;48.968;10.124;2023-05-18T08:39:12;10.43;;;3.23;;
71639;SDS011;60912;48.968;10.124;2023-05-18T08:41:39;10.75;;;2.65;;
71639;SDS011;60912;48.968;10.124;2023-05-18T08:44:10;9.23;;;2.53;;
71639;SDS011;60912;48.968;10.124;2023-05-18T08:46:40;8.18;;;2.40;;
71639;SDS011;60912;48.968;10.124;2023-05-18T08:52:29;9.77;;;2.50;;
71639;SDS011;60912;48.968;10.124;2023-05-18T08:55:01;11.15;;;2.10;;
71639;SDS011;60912;48.968;10.124;2023-05-18T09:07:50;8.73;;;2.43;;
71639;SDS011;60912;48.968;10.124;2023-05-18T09:10:32;10.35;;;2.80;;
71639;SDS011;60912;48.968;10.124;2023-05-18T09:13:06;9.20;;;2.35;;
71639;SDS011;60912;48.968;10.124;2023-05-18T09:15:36;9.05;;;2.55;;
71639;SDS011;60912;48.968;10.124;2023-05-18T09:18:02;6.73;;;2.20;;
71639;SDS011;60912;48.968;10.124;2023-05-18T09:23:35;5.88;;;2.03;;
71639;SDS011;60912;48.968;10.124;2023-05-18T09:26:08;9.90;;;2.73;;
71639;SDS011;60912;48.968;10.124;2023-05-18T09:28:42;8.23;;;2.50;;
71639;SDS011;60912;48.968;10.124;2023-05-18T09:31:11;10.23;;;2.50;;
71639;SDS011;60912;48.968;10.124;2023-05-18T09:34:06;6.82;;;2.38;;
71639;SDS011;60912;48.968;10.124;2023-05-18T09:36:41;8.52;;;2.58;;
71639;SDS011;60912;48.968;10.124;2023-05-18T09:39:24;12.47;;;2.27;;
71639;SDS011;60912;48.968;10.124;2023-05-18T09:41:58;8.40;;;2.40;;
71639;SDS011;60912;48.968;10.124;2023-05-18T09:44:40;12.43;;;2.85;;
71639;SDS011;60912;48.968;10.124;2023-05-18T09:47:23;8.13;;;2.95;;
71639;SDS011;60912;48.968;10.124;2023-05-18T09:49:57;9.82;;;2.60;;
71639;SDS011;60912;48.968;10.124;2023-05-18T09:52:25;7.60;;;2.23;;
71639;SDS011;60912;48.968;10.124;2023-05-18T09:57:52;11.40;;;2.55;;
71639;SDS011;60912;48.968;10.124;2023-05-18T10:00:23;11.43;;;2.50;;
71639;SDS011;60912;48.968;10.124;2023-05-18T10:02:53;10.23;;;2.38;;
71639;SDS011;60912;48.968;10.124;2023-05-18T10:05:24;7.60;;;2.37;;
71639;SDS011;60912;48.968;10.124;2023-05-18T10:08:05;11.77;;;2.38;;
71639;SDS011;60912;48.968;10.124;2023-05-18T10:10:36;9.02;;;2.72;;
71639;SDS011;60912;48.968;10.124;2023-05-18T10:13:04;10.30;;;2.30;;
71639;SDS011;60912;48.968;10.124;2023-05-18T10:15:44;7.77;;;2.33;;
71639;SDS011;60912;48.968;10.124;2023-05-18T10:18:29;6.97;;;2.53;;
71639;SDS011;60912;48.968;10.124;2023-05-18T10:21:05;9.15;;;2.10;;
71639;SDS011;60912;48.968;10.124;2023-05-18T10:23:40;6.93;;;2.03;;
71639;SDS011;60912;48.968;10.124;2023-05-18T10:26:11;12.13;;;2.47;;
71639;SDS011;60912;48.968;10.124;2023-05-18T10:28:46;9.07;;;2.50;;
71639;SDS011;60912;48.968;10.124;2023-05-18T10:31:23;9.10;;;2.60;;
71639;SDS011;60912;48.968;10.124;2023-05-18T10:33:55;8.02;;;2.25;;
71639;SDS011;60912;48.968;10.124;2023-05-18T10:36:34;9.57;;;2.50;;
71639;SDS011;60912;48.968;10.124;2023-05-18T10:39:08;8.23;;;2.20;;
71639;SDS011;60912;48.968;10.124;2023-05-18T10:41:43;7.80;;;2.10;;
71639;SDS011;60912;48.968;10.124;2023-05-18T10:44:20;7.93;;;2.28;;
71639;SDS011;60912;48.968;10.124;2023-05-18T10:46:51;8.20;;;2.20;;
71639;SDS011;60912;48.968;10.124;2023-05-18T10:49:18;11.32;;;2.50;;
71639;SDS011;60912;48.968;10.124;2023-05-18T10:51:49;10.55;;;2.40;;
71639;SDS011;60912;48.968;10.124;2023-05-18T10:54:18;6.03;;;2.00;;
71639;SDS011;60912;48.968;10.124;2023-05-18T10:56:45;8.60;;;2.40;;
71639;SDS011;60912;48.968;10.124;2023-05-18T10:59:18;10.68;;;1.90;;
71639;SDS011;60912;48.968;10.124;2023-05-18T11:01:51;6.82;;;2.00;;
71639;SDS011;60912;48.968;10.124;2023-05-18T11:04:24;10.77;;;2.10;;
71639;SDS011;60912;48.968;10.124;2023-05-18T11:06:56;12.33;;;2.27;;
71639;SDS011;60912;48.968;10.124;2023-05-18T11:09:26;8.55;;;2.20;;
71639;SDS011;60912;48.968;10.124;2023-05-18T11:11:53;9.63;;;2.00;;
71639;SDS011;60912;48.968;10.124;2023-05-18T11:14:25;10.02;;;2.30;;
71639;SDS011;60912;48.968;10.124;2023-05-18T11:17:16;9.45;;;1.90;;
71639;SDS011;60912;48.968;10.124;2023-05-18T11:25:07;11.07;;;2.50;;
71639;SDS011;60912;48.968;10.124;2023-05-18T11:27:33;10.02;;;2.08;;
71639;SDS011;60912;48.968;10.124;2023-05-18T11:29:59;10.37;;;2.20;;
71639;SDS011;60912;48.968;10.124;2023-05-18T11:34:54;8.32;;;2.35;;
71639;SDS011;60912;48.968;10.124;2023-05-18T11:40:04;6.88;;;1.70;;
71639;SDS011;60912;48.968;10.124;2023-05-18T11:42:34;6.35;;;2.00;;
71639;SDS011;60912;48.968;10.124;2023-05-18T11:45:09;13.80;;;2.23;;
71639;SDS011;60912;48.968;10.124;2023-05-18T11:47:36;8.73;;;2.25;;
71639;SDS011;60912;48.968;10.124;2023-05-18T11:50:06;8.40;;;2.15;;
71639;SDS011;60912;48.968;10.124;2023-05-18T11:52:32;8.95;;;1.92;;
71639;SDS011;60912;48.968;10.124;2023-05-18T11:55:12;8.82;;;2.20;;
71639;SDS011;60912;48.968;10.124;2023-05-18T11:57:40;9.97;;;1.93;;
71639;SDS011;60912;48.968;10.124;2023-05-18T12:00:08;9.98;;;2.35;;
71639;SDS011;60912;48.968;10.124;2023-05-18T12:02:36;8.88;;;2.15;;
71639;SDS011;60912;48.968;10.124;2023-05-18T12:05:06;6.95;;;2.03;;
71639;SDS011;60912;48.968;10.124;2023-05-18T12:07:33;9.85;;;2.03;;
71639;SDS011;60912;48.968;10.124;2023-05-18T12:10:01;9.07;;;2.00;;
71639;SDS011;60912;48.968;10.124;2023-05-18T12:12:28;11.00;;;2.40;;
71639;SDS011;60912;48.968;10.124;2023-05-18T12:14:54;7.75;;;2.53;;
71639;SDS011;60912;48.968;10.124;2023-05-18T12:17:21;8.57;;;2.28;;
71639;SDS011;60912;48.968;10.124;2023-05-18T12:19:48;9.00;;;2.10;;
71639;SDS011;60912;48.968;10.124;2023-05-18T12:22:14;8.48;;;2.10;;
71639;SDS011;60912;48.968;10.124;2023-05-18T12:24:41;7.70;;;2.40;;
71639;SDS011;60912;48.968;10.124;2023-05-18T12:27:11;8.70;;;2.38;;
71639;SDS011;60912;48.968;10.124;2023-05-18T12:29:40;8.57;;;2.33;;
71639;SDS011;60912;48.968;10.124;2023-05-18T12:32:10;6.43;;;2.10;;
71639;SDS011;60912;48.968;10.124;2023-05-18T12:34:38;10.30;;;2.38;;
71639;SDS011;60912;48.968;10.124;2023-05-18T12:37:06;8.30;;;2.10;;
71639;SDS011;60912;48.968;10.124;2023-05-18T12:39:32;9.47;;;1.80;;
71639;SDS011;60912;48.968;10.124;2023-05-18T12:42:10;7.63;;;2.00;;
71639;SDS011;60912;48.968;10.124;2023-05-18T12:44:38;9.93;;;2.20;;
71639;SDS011;60912;48.968;10.124;2023-05-18T12:47:04;8.48;;;1.85;;
71639;SDS011;60912;48.968;10.124;2023-05-18T12:49:34;7.50;;;2.17;;
71639;SDS011;60912;48.968;10.124;2023-05-18T12:52:06;5.95;;;1.65;;
71639;SDS011;60912;48.968;10.124;2023-05-18T12:54:33;6.60;;;1.92;;
71639;SDS011;60912;48.968;10.124;2023-05-18T12:57:03;7.37;;;1.90;;
71639;SDS011;60912;48.968;10.124;2023-05-18T12:59:30;7.03;;;1.83;;
71639;SDS011;60912;48.968;10.124;2023-05-18T13:01:55;7.93;;;2.10;;
71639;SDS011;60912;48.968;10.124;2023-05-18T13:04:22;7.13;;;2.05;;
71639;SDS011;60912;48.968;10.124;2023-05-18T13:06:48;8.13;;;1.92;;
71639;SDS011;60912;48.968;10.124;2023-05-18T13:09:14;10.47;;;2.13;;
71639;SDS011;60912;48.968;10.124;2023-05-18T13:11:40;8.05;;;2.70;;
71639;SDS011;60912;48.968;10.124;2023-05-18T13:14:10;7.30;;;1.93;;
71639;SDS011;60912;48.968;10.124;2023-05-18T13:16:41;7.90;;;2.10;;
71639;SDS011;60912;48.968;10.124;2023-05-18T13:19:09;7.40;;;1.87;;
71639;SDS011;60912;48.968;10.124;2023-05-18T13:21:35;10.23;;;2.50;;
71639;SDS011;60912;48.968;10.124;2023-05-18T13:24:01;9.02;;;2.13;;
71639;SDS011;60912;48.968;10.124;2023-05-18T13:26:28;9.57;;;2.40;;
71639;SDS011;60912;48.968;10.124;2023-05-18T13:28:55;8.65;;;2.17;;
71639;SDS011;60912;48.968;10.124;2023-05-18T13:31:21;9.80;;;2.37;;
71639;SDS011;60912;48.968;10.124;2023-05-18T13:33:47;8.35;;;2.05;;
71639;SDS011;60912;48.968;10.124;2023-05-18T13:36:13;5.85;;;2.22;;
71639;SDS011;60912;48.968;10.124;2023-05-18T13:38:39;9.43;;;1.77;;
71639;SDS011;60912;48.968;10.124;2023-05-18T13:41:05;9.20;;;2.40;;
71639;SDS011;60912;48.968;10.124;2023-05-18T13:43:31;7.60;;;2.20;;
71639;SDS011;60912;48.968;10.124;2023-05-18T13:45:57;6.93;;;1.90;;
71639;SDS011;60912;48.968;10.124;2023-05-18T13:48:22;8.00;;;2.10;;
71639;SDS011;60912;48.968;10.124;2023-05-18T13:50:48;8.90;;;2.15;;
71639;SDS011;60912;48.968;10.124;2023-05-18T13:53:14;6.67;;;2.00;;
71639;SDS011;60912;48.968;10.124;2023-05-18T13:55:40;6.95;;;2.00;;
71639;SDS011;60912;48.968;10.124;2023-05-18T13:58:05;9.87;;;2.10;;
71639;SDS011;60912;48.968;10.124;2023-05-18T14:00:31;5.63;;;2.05;;
71639;SDS011;60912;48.968;10.124;2023-05-18T14:02:57;8.40;;;2.10;;
71639;SDS011;60912;48.968;10.124;2023-05-18T14:05:22;10.07;;;2.30;;
71639;SDS011;60912;48.968;10.124;2023-05-18T14:07:48;5.28;;;1.95;;
71639;SDS011;60912;48.968;10.124;2023-05-18T14:10:16;6.63;;;1.77;;
71639;SDS011;60912;48.968;10.124;2023-05-18T14:12:42;8.32;;;2.15;;
71639;SDS011;60912;48.968;10.124;2023-05-18T14:15:07;8.90;;;2.00;;
71639;SDS011;60912;48.968;10.124;2023-05-18T14:17:33;7.07;;;1.80;;
71639;SDS011;60912;48.968;10.124;2023-05-18T14:19:59;7.13;;;1.75;;
71639;SDS011;60912;48.968;10.124;2023-05-18T14:22:25;7.13;;;2.10;;
71639;SDS011;60912;48.968;10.124;2023-05-18T14:24:51;7.18;;;1.75;;
71639;SDS011;60912;48.968;10.124;2023-05-18T14:27:17;7.72;;;1.80;;
71639;SDS011;60912;48.968;10.124;2023-05-18T14:29:44;9.77;;;2.03;;
71639;SDS011;60912;48.968;10.124;2023-05-18T14:32:10;9.00;;;2.10;;
71639;SDS011;60912;48.968;10.124;2023-05-18T14:34:35;9.38;;;1.92;;
71639;SDS011;60912;48.968;10.124;2023-05-18T14:37:01;9.33;;;2.30;;
71639;SDS011;60912;48.968;10.124;2023-05-18T14:39:27;6.83;;;1.80;;
71639;SDS011;60912;48.968;10.124;2023-05-18T14:41:52;5.55;;;1.90;;
71639;SDS011;60912;48.968;10.124;2023-05-18T14:44:18;8.77;;;2.10;;
71639;SDS011;60912;48.968;10.124;2023-05-18T14:46:43;6.70;;;2.10;;
71639;SDS011;60912;48.968;10.124;2023-05-18T14:49:09;5.40;;;2.10;;
71639;SDS011;60912;48.968;10.124;2023-05-18T14:51:34;6.50;;;1.83;;
71639;SDS011;60912;48.968;10.124;2023-05-18T14:54:00;6.57;;;2.07;;
71639;SDS011;60912;48.968;10.124;2023-05-18T14:56:25;5.78;;;1.90;;
71639;SDS011;60912;48.968;10.124;2023-05-18T14:58:51;7.60;;;2.10;;
71639;SDS011;60912;48.968;10.124;2023-05-18T15:01:16;7.05;;;2.20;;
71639;SDS011;60912;48.968;10.124;2023-05-18T15:03:42;8.87;;;1.70;;
71639;SDS011;60912;48.968;10.124;2023-05-18T15:06:07;8.27;;;2.13;;
71639;SDS011;60912;48.968;10.124;2023-05-18T15:08:33;7.63;;;1.80;;
71639;SDS011;60912;48.968;10.124;2023-05-18T15:10:58;7.03;;;1.70;;
71639;SDS011;60912;48.968;10.124;2023-05-18T15:13:24;7.17;;;1.97;;
71639;SDS011;60912;48.968;10.124;2023-05-18T15:15:49;7.32;;;1.80;;
71639;SDS011;60912;48.968;10.124;2023-05-18T15:18:15;5.53;;;1.80;;
71639;SDS011;60912;48.968;10.124;2023-05-18T15:20:40;6.43;;;2.00;;
71639;SDS011;60912;48.968;10.124;2023-05-18T15:23:07;7.78;;;1.65;;